sensor_id;sensor_type;location;lat;lon;timestamp;P1;durP1;ratioP1;P2;durP2;ratioP2
28613;SDS011;15806;53.548;9.964;2022-08-24T00:01:35;4.60;;;1.70;;
28613;SDS011;15806;53.548;9.964;2022-08-24T00:03:16;6.70;;;1.93;;
28613;SDS011;15806;53.548;9.964;2022-08-24T00:04:56;3.30;;;1.63;;
28613;SDS011;15806;53.548;9.964;2022-08-24T00:06:37;5.53;;;1.93;;
28613;SDS011;15806;53.548;9.964;2022-08-24T00:08:17;7.07;;;1.80;;
28613;SDS011;15806;53.548;9.964;2022-08-24T00:09:58;5.10;;;1.80;;
28613;SDS011;15806;53.548;9.964;2022-08-24T00:11:38;5.33;;;1.50;;
28613;SDS011;15806;53.548;9.964;2022-08-24T00:13:19;5.00;;;1.90;;
28613;SDS011;15806;53.548;9.964;2022-08-24T00:15:00;5.13;;;1.60;;
28613;SDS011;15806;53.548;9.964;2022-08-24T00:16:41;3.42;;;1.65;;
28613;SDS011;15806;53.548;9.964;2022-08-24T00:18:21;3.67;;;1.50;;
28613;SDS011;15806;53.548;9.964;2022-08-24T00:20:03;4.70;;;1.73;;
28613;SDS011;15806;53.548;9.964;2022-08-24T00:21:44;6.03;;;1.95;;
28613;SDS011;15806;53.548;9.964;2022-08-24T00:23:25;4.40;;;1.80;;
28613;SDS011;15806;53.548;9.964;2022-08-24T00:25:06;4.00;;;1.60;;
28613;SDS011;15806;53.548;9.964;2022-08-24T00:26:47;5.40;;;1.90;;
28613;SDS011;15806;53.548;9.964;2022-08-24T00:28:28;7.93;;;1.80;;
28613;SDS011;15806;53.548;9.964;2022-08-24T00:30:10;8.50;;;1.80;;
28613;SDS011;15806;53.548;9.964;2022-08-24T00:31:53;8.25;;;1.90;;
28613;SDS011;15806;53.548;9.964;2022-08-24T00:33:34;5.17;;;1.80;;
28613;SDS011;15806;53.548;9.964;2022-08-24T00:35:15;4.37;;;2.10;;
28613;SDS011;15806;53.548;9.964;2022-08-24T00:36:57;5.15;;;1.90;;
28613;SDS011;15806;53.548;9.964;2022-08-24T00:38:38;7.87;;;2.17;;
28613;SDS011;15806;53.548;9.964;2022-08-24T00:42:19;6.93;;;1.88;;
28613;SDS011;15806;53.548;9.964;2022-08-24T00:44:01;4.77;;;1.60;;
28613;SDS011;15806;53.548;9.964;2022-08-24T00:46:19;4.60;;;1.67;;
28613;SDS011;15806;53.548;9.964;2022-08-24T00:48:00;4.28;;;1.60;;
28613;SDS011;15806;53.548;9.964;2022-08-24T00:50:04;5.55;;;2.03;;
28613;SDS011;15806;53.548;9.964;2022-08-24T00:51:51;6.30;;;2.00;;
28613;SDS011;15806;53.548;9.964;2022-08-24T00:53:35;5.20;;;1.60;;
28613;SDS011;15806;53.548;9.964;2022-08-24T00:55:20;7.32;;;1.83;;
28613;SDS011;15806;53.548;9.964;2022-08-24T00:57:06;4.53;;;2.00;;
28613;SDS011;15806;53.548;9.964;2022-08-24T00:58:49;6.93;;;2.05;;
28613;SDS011;15806;53.548;9.964;2022-08-24T01:00:34;6.97;;;1.63;;
28613;SDS011;15806;53.548;9.964;2022-08-24T01:02:20;8.85;;;1.98;;
28613;SDS011;15806;53.548;9.964;2022-08-24T01:04:04;3.35;;;1.60;;
28613;SDS011;15806;53.548;9.964;2022-08-24T01:05:49;6.30;;;1.95;;
28613;SDS011;15806;53.548;9.964;2022-08-24T01:07:29;6.47;;;1.90;;
28613;SDS011;15806;53.548;9.964;2022-08-24T01:09:11;10.55;;;2.22;;
28613;SDS011;15806;53.548;9.964;2022-08-24T01:10:59;4.30;;;1.83;;
28613;SDS011;15806;53.548;9.964;2022-08-24T01:12:43;7.40;;;1.83;;
28613;SDS011;15806;53.548;9.964;2022-08-24T01:14:26;7.55;;;1.85;;
28613;SDS011;15806;53.548;9.964;2022-08-24T01:16:07;5.65;;;1.92;;
28613;SDS011;15806;53.548;9.964;2022-08-24T01:17:50;5.90;;;1.83;;
28613;SDS011;15806;53.548;9.964;2022-08-24T01:19:33;5.03;;;1.70;;
28613;SDS011;15806;53.548;9.964;2022-08-24T01:24:52;5.30;;;1.92;;
28613;SDS011;15806;53.548;9.964;2022-08-24T01:26:39;5.15;;;1.90;;
28613;SDS011;15806;53.548;9.964;2022-08-24T01:28:26;5.95;;;2.15;;
28613;SDS011;15806;53.548;9.964;2022-08-24T01:30:10;4.75;;;2.10;;
28613;SDS011;15806;53.548;9.964;2022-08-24T01:31:52;4.65;;;2.08;;
28613;SDS011;15806;53.548;9.964;2022-08-24T01:33:33;5.77;;;2.60;;
28613;SDS011;15806;53.548;9.964;2022-08-24T01:35:14;7.85;;;2.70;;
28613;SDS011;15806;53.548;9.964;2022-08-24T01:36:55;9.30;;;2.13;;
28613;SDS011;15806;53.548;9.964;2022-08-24T01:40:17;6.75;;;2.05;;
28613;SDS011;15806;53.548;9.964;2022-08-24T01:41:59;8.10;;;2.40;;
28613;SDS011;15806;53.548;9.964;2022-08-24T01:43:40;5.70;;;2.67;;
28613;SDS011;15806;53.548;9.964;2022-08-24T01:45:20;12.40;;;2.83;;
28613;SDS011;15806;53.548;9.964;2022-08-24T01:47:01;8.67;;;2.20;;
28613;SDS011;15806;53.548;9.964;2022-08-24T01:48:44;8.30;;;2.53;;
28613;SDS011;15806;53.548;9.964;2022-08-24T01:50:24;4.03;;;2.20;;
28613;SDS011;15806;53.548;9.964;2022-08-24T01:52:05;8.57;;;2.97;;
28613;SDS011;15806;53.548;9.964;2022-08-24T01:53:48;6.97;;;2.28;;
28613;SDS011;15806;53.548;9.964;2022-08-24T01:55:29;6.20;;;2.20;;
28613;SDS011;15806;53.548;9.964;2022-08-24T01:57:10;7.27;;;2.40;;
28613;SDS011;15806;53.548;9.964;2022-08-24T01:58:50;5.10;;;1.88;;
28613;SDS011;15806;53.548;9.964;2022-08-24T02:00:31;8.00;;;2.13;;
28613;SDS011;15806;53.548;9.964;2022-08-24T02:02:18;5.28;;;2.40;;
28613;SDS011;15806;53.548;9.964;2022-08-24T02:04:08;7.00;;;2.10;;
28613;SDS011;15806;53.548;9.964;2022-08-24T02:05:49;6.07;;;2.00;;
28613;SDS011;15806;53.548;9.964;2022-08-24T02:07:29;8.13;;;2.50;;
28613;SDS011;15806;53.548;9.964;2022-08-24T02:09:10;6.57;;;2.43;;
28613;SDS011;15806;53.548;9.964;2022-08-24T02:10:51;5.90;;;2.17;;
28613;SDS011;15806;53.548;9.964;2022-08-24T02:12:35;5.10;;;2.70;;
28613;SDS011;15806;53.548;9.964;2022-08-24T02:14:18;4.50;;;2.50;;
28613;SDS011;15806;53.548;9.964;2022-08-24T02:15:59;6.20;;;2.33;;
28613;SDS011;15806;53.548;9.964;2022-08-24T02:17:39;9.30;;;2.87;;
28613;SDS011;15806;53.548;9.964;2022-08-24T02:19:20;6.20;;;2.50;;
28613;SDS011;15806;53.548;9.964;2022-08-24T02:21:00;7.57;;;2.43;;
28613;SDS011;15806;53.548;9.964;2022-08-24T02:22:41;7.30;;;2.20;;
28613;SDS011;15806;53.548;9.964;2022-08-24T02:24:22;5.67;;;2.20;;
28613;SDS011;15806;53.548;9.964;2022-08-24T02:26:03;4.73;;;2.07;;
28613;SDS011;15806;53.548;9.964;2022-08-24T02:27:45;4.75;;;2.65;;
28613;SDS011;15806;53.548;9.964;2022-08-24T02:29:25;6.13;;;2.63;;
28613;SDS011;15806;53.548;9.964;2022-08-24T02:31:10;9.27;;;3.17;;
28613;SDS011;15806;53.548;9.964;2022-08-24T02:32:52;4.82;;;1.85;;
28613;SDS011;15806;53.548;9.964;2022-08-24T02:34:32;10.17;;;2.70;;
28613;SDS011;15806;53.548;9.964;2022-08-24T02:36:13;6.57;;;2.47;;
28613;SDS011;15806;53.548;9.964;2022-08-24T02:37:54;6.93;;;2.50;;
28613;SDS011;15806;53.548;9.964;2022-08-24T02:39:35;4.45;;;2.10;;
28613;SDS011;15806;53.548;9.964;2022-08-24T02:41:16;12.63;;;2.90;;
28613;SDS011;15806;53.548;9.964;2022-08-24T02:42:57;10.77;;;2.50;;
28613;SDS011;15806;53.548;9.964;2022-08-24T02:44:37;6.05;;;2.63;;
28613;SDS011;15806;53.548;9.964;2022-08-24T02:46:18;6.47;;;2.60;;
28613;SDS011;15806;53.548;9.964;2022-08-24T02:48:01;5.18;;;2.28;;
28613;SDS011;15806;53.548;9.964;2022-08-24T02:49:41;8.67;;;2.70;;
28613;SDS011;15806;53.548;9.964;2022-08-24T02:51:23;6.17;;;2.50;;
28613;SDS011;15806;53.548;9.964;2022-08-24T02:53:06;6.15;;;2.30;;
28613;SDS011;15806;53.548;9.964;2022-08-24T02:54:47;6.28;;;2.45;;
28613;SDS011;15806;53.548;9.964;2022-08-24T02:56:28;4.37;;;2.30;;
28613;SDS011;15806;53.548;9.964;2022-08-24T02:58:09;6.55;;;2.47;;
28613;SDS011;15806;53.548;9.964;2022-08-24T02:59:51;7.65;;;3.00;;
28613;SDS011;15806;53.548;9.964;2022-08-24T03:01:31;10.33;;;2.40;;
28613;SDS011;15806;53.548;9.964;2022-08-24T03:03:12;8.10;;;3.03;;
28613;SDS011;15806;53.548;9.964;2022-08-24T03:04:53;8.27;;;2.80;;
28613;SDS011;15806;53.548;9.964;2022-08-24T03:06:33;7.73;;;3.00;;
28613;SDS011;15806;53.548;9.964;2022-08-24T03:08:14;5.57;;;2.37;;
28613;SDS011;15806;53.548;9.964;2022-08-24T03:09:54;7.37;;;3.00;;
28613;SDS011;15806;53.548;9.964;2022-08-24T03:11:35;8.63;;;3.17;;
28613;SDS011;15806;53.548;9.964;2022-08-24T03:13:16;8.33;;;2.90;;
28613;SDS011;15806;53.548;9.964;2022-08-24T03:14:56;7.23;;;2.93;;
28613;SDS011;15806;53.548;9.964;2022-08-24T03:16:37;8.63;;;2.90;;
28613;SDS011;15806;53.548;9.964;2022-08-24T03:18:17;9.57;;;3.23;;
28613;SDS011;15806;53.548;9.964;2022-08-24T03:19:58;5.87;;;2.30;;
28613;SDS011;15806;53.548;9.964;2022-08-24T03:23:21;6.80;;;2.70;;
28613;SDS011;15806;53.548;9.964;2022-08-24T03:25:02;8.57;;;2.88;;
28613;SDS011;15806;53.548;9.964;2022-08-24T03:26:43;5.85;;;2.70;;
28613;SDS011;15806;53.548;9.964;2022-08-24T03:28:24;7.93;;;2.93;;
28613;SDS011;15806;53.548;9.964;2022-08-24T03:30:05;9.37;;;2.30;;
28613;SDS011;15806;53.548;9.964;2022-08-24T03:31:48;9.27;;;2.60;;
28613;SDS011;15806;53.548;9.964;2022-08-24T03:33:29;6.13;;;2.83;;
28613;SDS011;15806;53.548;9.964;2022-08-24T03:35:10;7.90;;;2.67;;
28613;SDS011;15806;53.548;9.964;2022-08-24T03:36:52;11.25;;;2.83;;
28613;SDS011;15806;53.548;9.964;2022-08-24T03:38:33;11.43;;;2.87;;
28613;SDS011;15806;53.548;9.964;2022-08-24T03:40:13;7.40;;;2.60;;
28613;SDS011;15806;53.548;9.964;2022-08-24T03:41:54;8.80;;;2.60;;
28613;SDS011;15806;53.548;9.964;2022-08-24T03:43:36;7.30;;;2.70;;
28613;SDS011;15806;53.548;9.964;2022-08-24T03:45:17;4.93;;;2.35;;
28613;SDS011;15806;53.548;9.964;2022-08-24T03:46:58;8.30;;;3.00;;
28613;SDS011;15806;53.548;9.964;2022-08-24T03:48:39;7.03;;;2.75;;
28613;SDS011;15806;53.548;9.964;2022-08-24T03:50:21;7.55;;;2.97;;
28613;SDS011;15806;53.548;9.964;2022-08-24T03:52:02;6.43;;;2.60;;
28613;SDS011;15806;53.548;9.964;2022-08-24T03:53:44;6.90;;;2.78;;
28613;SDS011;15806;53.548;9.964;2022-08-24T03:55:25;6.93;;;2.70;;
28613;SDS011;15806;53.548;9.964;2022-08-24T03:57:06;3.60;;;2.40;;
28613;SDS011;15806;53.548;9.964;2022-08-24T03:58:46;10.73;;;3.37;;
28613;SDS011;15806;53.548;9.964;2022-08-24T04:00:27;7.40;;;3.07;;
28613;SDS011;15806;53.548;9.964;2022-08-24T04:02:07;7.43;;;3.00;;
28613;SDS011;15806;53.548;9.964;2022-08-24T04:03:48;7.93;;;3.23;;
28613;SDS011;15806;53.548;9.964;2022-08-24T04:05:29;7.90;;;2.83;;
28613;SDS011;15806;53.548;9.964;2022-08-24T04:07:10;6.40;;;2.58;;
28613;SDS011;15806;53.548;9.964;2022-08-24T04:08:51;6.40;;;2.70;;
28613;SDS011;15806;53.548;9.964;2022-08-24T04:10:31;6.80;;;2.60;;
28613;SDS011;15806;53.548;9.964;2022-08-24T04:12:12;7.93;;;3.03;;
28613;SDS011;15806;53.548;9.964;2022-08-24T04:13:53;6.17;;;2.63;;
28613;SDS011;15806;53.548;9.964;2022-08-24T04:15:38;5.45;;;2.53;;
28613;SDS011;15806;53.548;9.964;2022-08-24T04:17:19;6.32;;;3.00;;
28613;SDS011;15806;53.548;9.964;2022-08-24T04:19:00;6.00;;;2.60;;
28613;SDS011;15806;53.548;9.964;2022-08-24T04:20:41;6.90;;;3.03;;
28613;SDS011;15806;53.548;9.964;2022-08-24T04:22:23;7.97;;;2.80;;
28613;SDS011;15806;53.548;9.964;2022-08-24T04:24:06;7.82;;;2.60;;
28613;SDS011;15806;53.548;9.964;2022-08-24T04:25:47;10.63;;;2.92;;
28613;SDS011;15806;53.548;9.964;2022-08-24T04:27:28;7.93;;;3.27;;
28613;SDS011;15806;53.548;9.964;2022-08-24T04:29:09;4.40;;;3.00;;
28613;SDS011;15806;53.548;9.964;2022-08-24T04:30:51;9.05;;;2.92;;
28613;SDS011;15806;53.548;9.964;2022-08-24T04:32:31;10.50;;;3.37;;
28613;SDS011;15806;53.548;9.964;2022-08-24T04:34:12;7.30;;;2.63;;
28613;SDS011;15806;53.548;9.964;2022-08-24T04:35:54;8.35;;;2.50;;
28613;SDS011;15806;53.548;9.964;2022-08-24T04:37:34;8.13;;;2.50;;
28613;SDS011;15806;53.548;9.964;2022-08-24T04:39:15;8.50;;;3.00;;
28613;SDS011;15806;53.548;9.964;2022-08-24T04:40:56;5.47;;;2.83;;
28613;SDS011;15806;53.548;9.964;2022-08-24T04:42:36;8.97;;;2.93;;
28613;SDS011;15806;53.548;9.964;2022-08-24T04:44:17;8.97;;;3.63;;
28613;SDS011;15806;53.548;9.964;2022-08-24T04:45:57;13.67;;;4.00;;
28613;SDS011;15806;53.548;9.964;2022-08-24T04:47:38;7.70;;;3.10;;
28613;SDS011;15806;53.548;9.964;2022-08-24T04:49:18;7.10;;;3.00;;
28613;SDS011;15806;53.548;9.964;2022-08-24T04:51:03;13.00;;;2.97;;
28613;SDS011;15806;53.548;9.964;2022-08-24T04:52:45;9.93;;;3.00;;
28613;SDS011;15806;53.548;9.964;2022-08-24T04:54:25;7.37;;;3.00;;
28613;SDS011;15806;53.548;9.964;2022-08-24T04:56:10;10.13;;;3.83;;
28613;SDS011;15806;53.548;9.964;2022-08-24T04:57:54;5.47;;;3.00;;
28613;SDS011;15806;53.548;9.964;2022-08-24T04:59:34;11.17;;;3.53;;
28613;SDS011;15806;53.548;9.964;2022-08-24T05:01:16;8.53;;;3.53;;
28613;SDS011;15806;53.548;9.964;2022-08-24T05:02:58;9.90;;;3.72;;
28613;SDS011;15806;53.548;9.964;2022-08-24T05:04:39;11.47;;;3.40;;
28613;SDS011;15806;53.548;9.964;2022-08-24T05:06:21;13.43;;;3.33;;
28613;SDS011;15806;53.548;9.964;2022-08-24T05:08:03;16.65;;;3.80;;
28613;SDS011;15806;53.548;9.964;2022-08-24T05:09:44;6.13;;;3.13;;
28613;SDS011;15806;53.548;9.964;2022-08-24T05:11:24;15.37;;;4.00;;
28613;SDS011;15806;53.548;9.964;2022-08-24T05:13:05;14.17;;;4.37;;
28613;SDS011;15806;53.548;9.964;2022-08-24T05:14:45;9.03;;;3.27;;
28613;SDS011;15806;53.548;9.964;2022-08-24T05:16:26;9.63;;;3.77;;
28613;SDS011;15806;53.548;9.964;2022-08-24T05:18:06;11.07;;;3.83;;
28613;SDS011;15806;53.548;9.964;2022-08-24T05:19:47;7.83;;;3.70;;
28613;SDS011;15806;53.548;9.964;2022-08-24T05:21:28;10.93;;;4.00;;
28613;SDS011;15806;53.548;9.964;2022-08-24T05:23:08;6.50;;;3.40;;
28613;SDS011;15806;53.548;9.964;2022-08-24T05:24:49;13.43;;;3.50;;
28613;SDS011;15806;53.548;9.964;2022-08-24T05:26:30;10.00;;;4.03;;
28613;SDS011;15806;53.548;9.964;2022-08-24T05:28:10;11.70;;;3.70;;
28613;SDS011;15806;53.548;9.964;2022-08-24T05:29:52;7.60;;;3.40;;
28613;SDS011;15806;53.548;9.964;2022-08-24T05:31:33;13.65;;;4.70;;
28613;SDS011;15806;53.548;9.964;2022-08-24T05:33:13;10.40;;;3.80;;
28613;SDS011;15806;53.548;9.964;2022-08-24T05:34:54;12.60;;;3.50;;
28613;SDS011;15806;53.548;9.964;2022-08-24T05:36:35;16.80;;;4.67;;
28613;SDS011;15806;53.548;9.964;2022-08-24T05:38:17;10.02;;;3.65;;
28613;SDS011;15806;53.548;9.964;2022-08-24T05:39:57;14.40;;;4.80;;
28613;SDS011;15806;53.548;9.964;2022-08-24T05:41:41;13.65;;;3.78;;
28613;SDS011;15806;53.548;9.964;2022-08-24T05:43:24;8.18;;;3.88;;
28613;SDS011;15806;53.548;9.964;2022-08-24T05:45:04;15.07;;;4.10;;
28613;SDS011;15806;53.548;9.964;2022-08-24T05:46:46;8.45;;;4.18;;
28613;SDS011;15806;53.548;9.964;2022-08-24T05:48:26;8.17;;;3.60;;
28613;SDS011;15806;53.548;9.964;2022-08-24T05:50:07;13.17;;;4.60;;
28613;SDS011;15806;53.548;9.964;2022-08-24T05:51:48;13.33;;;4.33;;
28613;SDS011;15806;53.548;9.964;2022-08-24T05:53:28;11.37;;;3.97;;
28613;SDS011;15806;53.548;9.964;2022-08-24T05:55:09;11.88;;;4.13;;
28613;SDS011;15806;53.548;9.964;2022-08-24T05:56:50;13.20;;;4.60;;
28613;SDS011;15806;53.548;9.964;2022-08-24T05:58:31;11.70;;;4.33;;
28613;SDS011;15806;53.548;9.964;2022-08-24T06:00:11;10.83;;;3.87;;
28613;SDS011;15806;53.548;9.964;2022-08-24T06:01:52;14.13;;;4.07;;
28613;SDS011;15806;53.548;9.964;2022-08-24T06:03:33;12.60;;;4.37;;
28613;SDS011;15806;53.548;9.964;2022-08-24T06:05:13;11.73;;;4.37;;
28613;SDS011;15806;53.548;9.964;2022-08-24T06:06:54;12.57;;;4.47;;
28613;SDS011;15806;53.548;9.964;2022-08-24T06:08:35;11.50;;;4.20;;
28613;SDS011;15806;53.548;9.964;2022-08-24T06:10:22;11.15;;;4.60;;
28613;SDS011;15806;53.548;9.964;2022-08-24T06:12:03;19.37;;;4.50;;
28613;SDS011;15806;53.548;9.964;2022-08-24T06:13:44;9.65;;;3.95;;
28613;SDS011;15806;53.548;9.964;2022-08-24T06:15:24;14.00;;;4.67;;
28613;SDS011;15806;53.548;9.964;2022-08-24T06:17:08;18.40;;;5.00;;
28613;SDS011;15806;53.548;9.964;2022-08-24T06:18:49;13.98;;;4.13;;
28613;SDS011;15806;53.548;9.964;2022-08-24T06:20:31;11.90;;;4.57;;
28613;SDS011;15806;53.548;9.964;2022-08-24T06:22:16;14.63;;;4.93;;
28613;SDS011;15806;53.548;9.964;2022-08-24T06:23:57;12.60;;;4.47;;
28613;SDS011;15806;53.548;9.964;2022-08-24T06:25:38;12.05;;;4.47;;
28613;SDS011;15806;53.548;9.964;2022-08-24T06:27:19;11.85;;;4.72;;
28613;SDS011;15806;53.548;9.964;2022-08-24T06:29:01;13.55;;;5.55;;
28613;SDS011;15806;53.548;9.964;2022-08-24T06:30:42;12.40;;;4.88;;
28613;SDS011;15806;53.548;9.964;2022-08-24T06:32:22;13.47;;;5.20;;
28613;SDS011;15806;53.548;9.964;2022-08-24T06:34:03;10.60;;;4.67;;
28613;SDS011;15806;53.548;9.964;2022-08-24T06:35:44;12.03;;;4.10;;
28613;SDS011;15806;53.548;9.964;2022-08-24T06:37:25;13.20;;;4.97;;
28613;SDS011;15806;53.548;9.964;2022-08-24T06:39:05;12.50;;;4.77;;
28613;SDS011;15806;53.548;9.964;2022-08-24T06:40:46;12.55;;;4.53;;
28613;SDS011;15806;53.548;9.964;2022-08-24T06:42:27;12.50;;;4.57;;
28613;SDS011;15806;53.548;9.964;2022-08-24T06:44:07;11.23;;;4.27;;
28613;SDS011;15806;53.548;9.964;2022-08-24T06:45:48;16.03;;;5.17;;
28613;SDS011;15806;53.548;9.964;2022-08-24T06:47:29;10.00;;;4.53;;
28613;SDS011;15806;53.548;9.964;2022-08-24T06:49:10;15.70;;;5.03;;
28613;SDS011;15806;53.548;9.964;2022-08-24T06:50:50;11.77;;;4.50;;
28613;SDS011;15806;53.548;9.964;2022-08-24T06:52:32;11.50;;;4.57;;
28613;SDS011;15806;53.548;9.964;2022-08-24T06:54:13;14.57;;;4.40;;
28613;SDS011;15806;53.548;9.964;2022-08-24T06:55:55;18.40;;;5.10;;
28613;SDS011;15806;53.548;9.964;2022-08-24T06:57:37;9.30;;;4.55;;
28613;SDS011;15806;53.548;9.964;2022-08-24T06:59:18;14.27;;;5.47;;
28613;SDS011;15806;53.548;9.964;2022-08-24T07:01:06;18.60;;;4.57;;
28613;SDS011;15806;53.548;9.964;2022-08-24T07:02:51;18.92;;;5.05;;
28613;SDS011;15806;53.548;9.964;2022-08-24T07:04:32;12.30;;;4.07;;
28613;SDS011;15806;53.548;9.964;2022-08-24T07:06:13;9.20;;;3.97;;
28613;SDS011;15806;53.548;9.964;2022-08-24T07:07:53;10.50;;;4.22;;
28613;SDS011;15806;53.548;9.964;2022-08-24T07:09:34;11.47;;;4.50;;
28613;SDS011;15806;53.548;9.964;2022-08-24T07:11:15;12.80;;;3.73;;
28613;SDS011;15806;53.548;9.964;2022-08-24T07:12:56;14.63;;;4.30;;
28613;SDS011;15806;53.548;9.964;2022-08-24T07:14:37;15.63;;;3.95;;
28613;SDS011;15806;53.548;9.964;2022-08-24T07:16:18;9.57;;;3.27;;
28613;SDS011;15806;53.548;9.964;2022-08-24T07:17:59;11.27;;;3.80;;
28613;SDS011;15806;53.548;9.964;2022-08-24T07:19:40;11.63;;;3.90;;
28613;SDS011;15806;53.548;9.964;2022-08-24T07:21:21;13.90;;;4.03;;
28613;SDS011;15806;53.548;9.964;2022-08-24T07:23:02;11.15;;;3.85;;
28613;SDS011;15806;53.548;9.964;2022-08-24T07:24:44;9.45;;;3.25;;
28613;SDS011;15806;53.548;9.964;2022-08-24T07:26:26;10.45;;;3.58;;
28613;SDS011;15806;53.548;9.964;2022-08-24T07:28:08;9.50;;;3.88;;
28613;SDS011;15806;53.548;9.964;2022-08-24T07:29:52;11.43;;;3.75;;
28613;SDS011;15806;53.548;9.964;2022-08-24T07:31:34;20.48;;;3.35;;
28613;SDS011;15806;53.548;9.964;2022-08-24T07:33:17;11.52;;;3.53;;
28613;SDS011;15806;53.548;9.964;2022-08-24T07:34:58;12.33;;;3.83;;
28613;SDS011;15806;53.548;9.964;2022-08-24T07:36:39;13.20;;;4.00;;
28613;SDS011;15806;53.548;9.964;2022-08-24T07:38:19;9.75;;;3.53;;
28613;SDS011;15806;53.548;9.964;2022-08-24T07:40:00;10.00;;;3.70;;
28613;SDS011;15806;53.548;9.964;2022-08-24T07:41:42;12.13;;;4.23;;
28613;SDS011;15806;53.548;9.964;2022-08-24T07:43:23;9.23;;;4.00;;
28613;SDS011;15806;53.548;9.964;2022-08-24T07:45:04;13.60;;;3.97;;
28613;SDS011;15806;53.548;9.964;2022-08-24T07:46:45;10.23;;;4.40;;
28613;SDS011;15806;53.548;9.964;2022-08-24T07:48:26;12.60;;;3.73;;
28613;SDS011;15806;53.548;9.964;2022-08-24T07:50:06;8.13;;;4.03;;
28613;SDS011;15806;53.548;9.964;2022-08-24T07:51:47;9.27;;;4.50;;
28613;SDS011;15806;53.548;9.964;2022-08-24T07:53:28;11.80;;;4.10;;
28613;SDS011;15806;53.548;9.964;2022-08-24T07:55:09;12.27;;;3.90;;
28613;SDS011;15806;53.548;9.964;2022-08-24T07:56:50;7.50;;;3.40;;
28613;SDS011;15806;53.548;9.964;2022-08-24T07:58:30;9.67;;;3.80;;
28613;SDS011;15806;53.548;9.964;2022-08-24T08:00:12;8.97;;;3.80;;
28613;SDS011;15806;53.548;9.964;2022-08-24T08:01:54;9.07;;;3.95;;
28613;SDS011;15806;53.548;9.964;2022-08-24T08:03:35;9.40;;;3.83;;
28613;SDS011;15806;53.548;9.964;2022-08-24T08:05:16;13.03;;;4.03;;
28613;SDS011;15806;53.548;9.964;2022-08-24T08:06:59;12.40;;;4.00;;
28613;SDS011;15806;53.548;9.964;2022-08-24T08:08:40;9.47;;;4.27;;
28613;SDS011;15806;53.548;9.964;2022-08-24T08:10:20;11.27;;;3.90;;
28613;SDS011;15806;53.548;9.964;2022-08-24T08:12:01;8.40;;;4.00;;
28613;SDS011;15806;53.548;9.964;2022-08-24T08:13:42;9.45;;;4.00;;
28613;SDS011;15806;53.548;9.964;2022-08-24T08:15:23;9.37;;;3.53;;
28613;SDS011;15806;53.548;9.964;2022-08-24T08:17:03;10.63;;;3.63;;
28613;SDS011;15806;53.548;9.964;2022-08-24T08:18:44;9.10;;;3.40;;
28613;SDS011;15806;53.548;9.964;2022-08-24T08:20:24;12.07;;;4.10;;
28613;SDS011;15806;53.548;9.964;2022-08-24T08:22:05;13.10;;;3.60;;
28613;SDS011;15806;53.548;9.964;2022-08-24T08:23:45;11.17;;;3.57;;
28613;SDS011;15806;53.548;9.964;2022-08-24T08:25:26;7.07;;;3.83;;
28613;SDS011;15806;53.548;9.964;2022-08-24T08:27:06;10.63;;;3.77;;
28613;SDS011;15806;53.548;9.964;2022-08-24T08:28:47;13.00;;;3.60;;
28613;SDS011;15806;53.548;9.964;2022-08-24T08:30:28;9.47;;;4.23;;
28613;SDS011;15806;53.548;9.964;2022-08-24T08:32:09;7.53;;;3.10;;
28613;SDS011;15806;53.548;9.964;2022-08-24T08:33:51;11.88;;;3.88;;
28613;SDS011;15806;53.548;9.964;2022-08-24T08:35:31;10.53;;;4.37;;
28613;SDS011;15806;53.548;9.964;2022-08-24T08:37:12;9.07;;;3.83;;
28613;SDS011;15806;53.548;9.964;2022-08-24T08:38:54;11.20;;;3.83;;
28613;SDS011;15806;53.548;9.964;2022-08-24T08:48:41;9.10;;;3.20;;
28613;SDS011;15806;53.548;9.964;2022-08-24T08:54:54;11.52;;;4.43;;
28613;SDS011;15806;53.548;9.964;2022-08-24T09:06:57;9.30;;;3.40;;
28613;SDS011;15806;53.548;9.964;2022-08-24T09:10:53;9.80;;;3.45;;
28613;SDS011;15806;53.548;9.964;2022-08-24T09:22:43;6.53;;;3.13;;
28613;SDS011;15806;53.548;9.964;2022-08-24T09:24:31;8.45;;;3.40;;
28613;SDS011;15806;53.548;9.964;2022-08-24T09:28:31;9.18;;;3.85;;
28613;SDS011;15806;53.548;9.964;2022-08-24T09:30:18;8.68;;;2.92;;
28613;SDS011;15806;53.548;9.964;2022-08-24T09:32:14;9.77;;;3.17;;
28613;SDS011;15806;53.548;9.964;2022-08-24T09:34:27;7.22;;;3.40;;
28613;SDS011;15806;53.548;9.964;2022-08-24T09:36:19;10.90;;;6.40;;
28613;SDS011;15806;53.548;9.964;2022-08-24T09:38:17;26.75;;;20.80;;
28613;SDS011;15806;53.548;9.964;2022-08-24T09:42:38;17.48;;;11.20;;
28613;SDS011;15806;53.548;9.964;2022-08-24T10:12:17;7.32;;;2.90;;
28613;SDS011;15806;53.548;9.964;2022-08-24T10:16:06;7.30;;;3.00;;
28613;SDS011;15806;53.548;9.964;2022-08-24T10:20:23;9.18;;;2.75;;
28613;SDS011;15806;53.548;9.964;2022-08-24T10:26:31;5.40;;;2.47;;
28613;SDS011;15806;53.548;9.964;2022-08-24T10:28:51;7.05;;;2.72;;
28613;SDS011;15806;53.548;9.964;2022-08-24T10:31:01;5.07;;;3.33;;
28613;SDS011;15806;53.548;9.964;2022-08-24T10:32:56;7.43;;;2.40;;
28613;SDS011;15806;53.548;9.964;2022-08-24T10:35:13;4.72;;;2.55;;
28613;SDS011;15806;53.548;9.964;2022-08-24T10:37:15;5.57;;;2.53;;
28613;SDS011;15806;53.548;9.964;2022-08-24T10:39:25;4.97;;;2.58;;
28613;SDS011;15806;53.548;9.964;2022-08-24T10:41:21;7.03;;;2.63;;
28613;SDS011;15806;53.548;9.964;2022-08-24T10:45:35;10.43;;;2.17;;
28613;SDS011;15806;53.548;9.964;2022-08-24T10:47:22;7.53;;;2.30;;
28613;SDS011;15806;53.548;9.964;2022-08-24T10:49:18;7.75;;;2.45;;
28613;SDS011;15806;53.548;9.964;2022-08-24T10:55:18;7.00;;;3.10;;
28613;SDS011;15806;53.548;9.964;2022-08-24T10:59:21;8.93;;;2.67;;
28613;SDS011;15806;53.548;9.964;2022-08-24T11:03:08;5.63;;;2.35;;
28613;SDS011;15806;53.548;9.964;2022-08-24T11:05:00;8.60;;;2.45;;
28613;SDS011;15806;53.548;9.964;2022-08-24T11:08:58;6.03;;;1.90;;
28613;SDS011;15806;53.548;9.964;2022-08-24T11:10:42;5.57;;;2.65;;
28613;SDS011;15806;53.548;9.964;2022-08-24T11:12:24;7.77;;;2.30;;
28613;SDS011;15806;53.548;9.964;2022-08-24T11:15:56;7.82;;;2.22;;
28613;SDS011;15806;53.548;9.964;2022-08-24T11:17:38;5.40;;;2.50;;
28613;SDS011;15806;53.548;9.964;2022-08-24T11:19:39;10.00;;;2.78;;
28613;SDS011;15806;53.548;9.964;2022-08-24T11:21:36;9.83;;;2.70;;
28613;SDS011;15806;53.548;9.964;2022-08-24T11:23:21;7.85;;;2.33;;
28613;SDS011;15806;53.548;9.964;2022-08-24T11:25:21;3.33;;;2.15;;
28613;SDS011;15806;53.548;9.964;2022-08-24T11:28:59;4.93;;;2.67;;
28613;SDS011;15806;53.548;9.964;2022-08-24T11:30:43;3.72;;;1.65;;
28613;SDS011;15806;53.548;9.964;2022-08-24T11:32:40;4.15;;;2.25;;
28613;SDS011;15806;53.548;9.964;2022-08-24T11:34:34;4.22;;;2.00;;
28613;SDS011;15806;53.548;9.964;2022-08-24T11:36:18;6.13;;;2.13;;
28613;SDS011;15806;53.548;9.964;2022-08-24T11:38:33;4.85;;;2.00;;
28613;SDS011;15806;53.548;9.964;2022-08-24T11:40:09;3.20;;;1.55;;
28613;SDS011;15806;53.548;9.964;2022-08-24T11:43:56;6.35;;;1.52;;
28613;SDS011;15806;53.548;9.964;2022-08-24T11:46:01;3.28;;;1.75;;
28613;SDS011;15806;53.548;9.964;2022-08-24T11:49:48;5.75;;;1.92;;
28613;SDS011;15806;53.548;9.964;2022-08-24T11:57:37;8.52;;;2.15;;
28613;SDS011;15806;53.548;9.964;2022-08-24T12:05:29;5.05;;;1.88;;
28613;SDS011;15806;53.548;9.964;2022-08-24T12:09:19;8.07;;;2.17;;
28613;SDS011;15806;53.548;9.964;2022-08-24T12:14:52;4.82;;;2.15;;
28613;SDS011;15806;53.548;9.964;2022-08-24T12:18:44;5.35;;;1.70;;
28613;SDS011;15806;53.548;9.964;2022-08-24T12:20:34;4.53;;;1.92;;
28613;SDS011;15806;53.548;9.964;2022-08-24T12:22:19;3.17;;;1.55;;
28613;SDS011;15806;53.548;9.964;2022-08-24T12:24:06;4.13;;;1.80;;
28613;SDS011;15806;53.548;9.964;2022-08-24T12:26:26;7.15;;;1.85;;